Aeroporto :
LOGIN :

Iscrizione | Disclaimer

   EN    FR    IT 

 










Sommario :    VFR   VFR Marginale   IFR   IFR Intensivo   IFR Molto Intensivo
Visibilità : 
Base nubi : 
>= 8 km
>= 3000ft
5 / 8 km
1000 / 3000 ft
1500m / 5 km
500 / 1000 ft
800 / 1500m
200 / 500 ft
< 800m
< 200 ft
Simboli :   Temporali  Nebbia  Neve Forte  Precipitazioni Forti  Vento > 20 kt
SIGMETs :   Varie  Temporali  Ghiacco  Turbolenza  Onda orograficha  Ceneri Vulcaniche







- Altitudine del aeroporto : 219 ft
- Codice IATA : DNR
- Carte del aeroporto


LFRD - Dinard

ULTIMO METAR :
  • 191930Z AUTO 31009KT CAVOK 14/12 Q1012 NOSIG

METARs OBSOLETI :
  • 191900Z AUTO 31009KT 9999 SCT048 SCT054 OVC100 14/12 Q1012 NOSIG
  • 191830Z AUTO 31011KT 9999 FEW011 SCT035 BKN049 14/12 Q1012 TEMPO 4000 SHRA BKN005 BKN030TCU
  • 191800Z AUTO 32011KT 9999 FEW010 BKN041 BKN048 15/12 Q1012 TEMPO 4000 SHRA BKN005 BKN030TCU
  • 191730Z AUTO 31012KT 9999 SCT009 OVC038 15/12 Q1012 TEMPO 4000 SHRA BKN005 BKN030TCU
  • 191700Z AUTO 32011KT 9999 BKN008 OVC031 15/13 Q1011 TEMPO 4000 SHRA BKN008 BKN020TCU

TAF TAF LFRD
Valido dal 19 a 18 ore il 20 a 18 ore UTC


191700Z 1918/2018 30010KT 9999 BKN040
TEMPO 1918/1920 4000 SHRA BKN005 BKN030TCU
TEMPO 2000/2008 BKN014
PROB30
TEMPO 2009/2018 4000 SHRA
ATIS : +33 2 99 16 81 50
Nessun NOTAM noto per questo aeroporto.



MetMap, La meteo Aeronautica in un colpo d'occhio ! - Copyright ORBIFLY Dicembre 2007 - Disclaimer

ORBIFLY MET'MAP TEAM :

Programmazione e sviluppo : Alexandra Zaïnal
Concezione e sviluppo : Baudouin d'Aumeries
Co-Programmazione e sviluppo : Marc-Olivier Méhu
Supporto tecnico e logistico : Manuel Goepfert
Aiuto per la traduzione : Arnaldo La Scala

Contatto : metmap@orbifly.com




FONTI E CREDITI :

   NOAA